sensor_id;sensor_type;location;lat;lon;timestamp;temperature;humidity
19389;DHT22;9830;41.876;23.474;2023-07-16T00:01:03;21.00;99.90
19389;DHT22;9830;41.876;23.474;2023-07-16T00:03:29;20.80;99.90
19389;DHT22;9830;41.876;23.474;2023-07-16T00:05:55;20.70;99.90
19389;DHT22;9830;41.876;23.474;2023-07-16T00:08:22;20.50;99.90
19389;DHT22;9830;41.876;23.474;2023-07-16T00:10:47;20.60;99.90
19389;DHT22;9830;41.876;23.474;2023-07-16T00:13:13;20.70;99.90
19389;DHT22;9830;41.876;23.474;2023-07-16T00:15:38;20.60;99.90
19389;DHT22;9830;41.876;23.474;2023-07-16T00:18:04;20.60;99.90
19389;DHT22;9830;41.876;23.474;2023-07-16T00:20:32;20.50;99.90
19389;DHT22;9830;41.876;23.474;2023-07-16T00:22:58;20.50;99.90
19389;DHT22;9830;41.876;23.474;2023-07-16T00:25:23;20.50;99.90
19389;DHT22;9830;41.876;23.474;2023-07-16T00:27:49;20.50;99.90
19389;DHT22;9830;41.876;23.474;2023-07-16T00:30:15;20.40;99.90
19389;DHT22;9830;41.876;23.474;2023-07-16T00:32:40;20.40;99.90
19389;DHT22;9830;41.876;23.474;2023-07-16T00:35:06;20.40;99.90
19389;DHT22;9830;41.876;23.474;2023-07-16T00:37:33;20.40;99.90
19389;DHT22;9830;41.876;23.474;2023-07-16T00:39:59;20.40;99.90
19389;DHT22;9830;41.876;23.474;2023-07-16T00:42:25;20.40;99.90
19389;DHT22;9830;41.876;23.474;2023-07-16T00:44:50;20.30;99.90
19389;DHT22;9830;41.876;23.474;2023-07-16T00:47:16;20.10;99.90
19389;DHT22;9830;41.876;23.474;2023-07-16T00:49:42;20.00;99.90
19389;DHT22;9830;41.876;23.474;2023-07-16T00:52:13;20.00;99.90
19389;DHT22;9830;41.876;23.474;2023-07-16T00:54:42;20.00;99.90
19389;DHT22;9830;41.876;23.474;2023-07-16T00:57:08;20.10;99.90
19389;DHT22;9830;41.876;23.474;2023-07-16T00:59:33;20.00;99.90
19389;DHT22;9830;41.876;23.474;2023-07-16T01:01:59;20.00;99.90
19389;DHT22;9830;41.876;23.474;2023-07-16T01:04:25;20.00;99.90
19389;DHT22;9830;41.876;23.474;2023-07-16T01:06:53;20.00;99.90
19389;DHT22;9830;41.876;23.474;2023-07-16T01:09:21;20.00;99.90
19389;DHT22;9830;41.876;23.474;2023-07-16T01:11:50;20.10;99.90
19389;DHT22;9830;41.876;23.474;2023-07-16T01:14:17;20.00;99.90
19389;DHT22;9830;41.876;23.474;2023-07-16T01:16:43;20.00;99.90
19389;DHT22;9830;41.876;23.474;2023-07-16T01:19:10;19.90;99.90
19389;DHT22;9830;41.876;23.474;2023-07-16T01:21:48;19.90;99.90
19389;DHT22;9830;41.876;23.474;2023-07-16T01:30:02;19.90;99.90
19389;DHT22;9830;41.876;23.474;2023-07-16T01:32:32;19.90;99.90
19389;DHT22;9830;41.876;23.474;2023-07-16T01:34:59;19.80;99.90
19389;DHT22;9830;41.876;23.474;2023-07-16T01:37:25;19.80;99.90
19389;DHT22;9830;41.876;23.474;2023-07-16T01:39:51;19.80;99.90
19389;DHT22;9830;41.876;23.474;2023-07-16T01:42:16;19.80;99.90
19389;DHT22;9830;41.876;23.474;2023-07-16T01:44:42;19.80;99.90
19389;DHT22;9830;41.876;23.474;2023-07-16T01:47:16;19.80;99.90
19389;DHT22;9830;41.876;23.474;2023-07-16T01:49:46;19.70;99.90
19389;DHT22;9830;41.876;23.474;2023-07-16T01:52:12;19.60;99.90
19389;DHT22;9830;41.876;23.474;2023-07-16T01:54:38;19.60;99.90
19389;DHT22;9830;41.876;23.474;2023-07-16T01:57:04;19.50;99.90
19389;DHT22;9830;41.876;23.474;2023-07-16T01:59:29;19.50;99.90
19389;DHT22;9830;41.876;23.474;2023-07-16T02:01:55;19.40;99.90
19389;DHT22;9830;41.876;23.474;2023-07-16T02:04:21;19.40;99.90
19389;DHT22;9830;41.876;23.474;2023-07-16T02:06:47;19.40;99.90
19389;DHT22;9830;41.876;23.474;2023-07-16T02:09:13;19.40;99.90
19389;DHT22;9830;41.876;23.474;2023-07-16T02:11:39;19.30;99.90
19389;DHT22;9830;41.876;23.474;2023-07-16T02:14:05;19.30;99.90
19389;DHT22;9830;41.876;23.474;2023-07-16T02:16:30;19.30;99.90
19389;DHT22;9830;41.876;23.474;2023-07-16T02:18:56;19.30;99.90
19389;DHT22;9830;41.876;23.474;2023-07-16T02:21:22;19.30;99.90
19389;DHT22;9830;41.876;23.474;2023-07-16T02:23:48;19.30;99.90
19389;DHT22;9830;41.876;23.474;2023-07-16T02:26:13;19.20;99.90
19389;DHT22;9830;41.876;23.474;2023-07-16T02:28:39;19.20;99.90
19389;DHT22;9830;41.876;23.474;2023-07-16T02:31:04;19.20;99.90
19389;DHT22;9830;41.876;23.474;2023-07-16T02:33:30;19.10;99.90
19389;DHT22;9830;41.876;23.474;2023-07-16T02:35:56;19.10;99.90
19389;DHT22;9830;41.876;23.474;2023-07-16T02:38:21;19.10;99.90
19389;DHT22;9830;41.876;23.474;2023-07-16T02:40:48;19.10;99.90
19389;DHT22;9830;41.876;23.474;2023-07-16T02:43:14;19.00;99.90
19389;DHT22;9830;41.876;23.474;2023-07-16T02:45:40;19.00;99.90
19389;DHT22;9830;41.876;23.474;2023-07-16T02:48:06;19.00;99.90
19389;DHT22;9830;41.876;23.474;2023-07-16T02:50:38;19.00;99.90
19389;DHT22;9830;41.876;23.474;2023-07-16T02:53:05;19.00;99.90
19389;DHT22;9830;41.876;23.474;2023-07-16T02:55:31;19.00;99.90
19389;DHT22;9830;41.876;23.474;2023-07-16T02:57:57;19.00;99.90
19389;DHT22;9830;41.876;23.474;2023-07-16T03:00:22;18.90;99.90
19389;DHT22;9830;41.876;23.474;2023-07-16T03:02:48;18.90;99.90
19389;DHT22;9830;41.876;23.474;2023-07-16T03:05:17;18.90;99.90
19389;DHT22;9830;41.876;23.474;2023-07-16T03:07:43;18.80;99.90
19389;DHT22;9830;41.876;23.474;2023-07-16T03:10:09;18.80;99.90
19389;DHT22;9830;41.876;23.474;2023-07-16T03:12:34;18.80;99.90
19389;DHT22;9830;41.876;23.474;2023-07-16T03:15:00;18.60;99.90
19389;DHT22;9830;41.876;23.474;2023-07-16T03:17:26;18.60;99.90
19389;DHT22;9830;41.876;23.474;2023-07-16T03:19:51;18.60;99.90
19389;DHT22;9830;41.876;23.474;2023-07-16T03:22:17;18.40;99.90
19389;DHT22;9830;41.876;23.474;2023-07-16T03:24:43;18.50;99.90
19389;DHT22;9830;41.876;23.474;2023-07-16T03:27:09;18.50;99.90
19389;DHT22;9830;41.876;23.474;2023-07-16T03:29:34;18.60;99.90
19389;DHT22;9830;41.876;23.474;2023-07-16T03:32:00;18.70;99.90
19389;DHT22;9830;41.876;23.474;2023-07-16T03:34:26;18.70;99.90
19389;DHT22;9830;41.876;23.474;2023-07-16T03:36:52;18.70;99.90
19389;DHT22;9830;41.876;23.474;2023-07-16T03:39:17;18.80;99.90
19389;DHT22;9830;41.876;23.474;2023-07-16T03:41:43;18.90;99.90
19389;DHT22;9830;41.876;23.474;2023-07-16T03:44:09;19.20;99.90
19389;DHT22;9830;41.876;23.474;2023-07-16T03:46:35;19.30;99.90
19389;DHT22;9830;41.876;23.474;2023-07-16T03:49:00;19.50;99.90
19389;DHT22;9830;41.876;23.474;2023-07-16T03:51:26;19.60;99.90
19389;DHT22;9830;41.876;23.474;2023-07-16T03:53:52;19.60;99.90
19389;DHT22;9830;41.876;23.474;2023-07-16T03:56:17;19.90;99.90
19389;DHT22;9830;41.876;23.474;2023-07-16T03:58:43;20.30;99.90
19389;DHT22;9830;41.876;23.474;2023-07-16T04:01:09;20.90;99.90
19389;DHT22;9830;41.876;23.474;2023-07-16T04:03:35;21.60;99.90
19389;DHT22;9830;41.876;23.474;2023-07-16T04:06:05;22.30;99.90
19389;DHT22;9830;41.876;23.474;2023-07-16T04:08:31;23.00;99.90
19389;DHT22;9830;41.876;23.474;2023-07-16T04:10:57;23.60;99.90
19389;DHT22;9830;41.876;23.474;2023-07-16T04:13:23;24.10;99.90
19389;DHT22;9830;41.876;23.474;2023-07-16T04:15:49;24.70;99.90
19389;DHT22;9830;41.876;23.474;2023-07-16T04:18:14;25.00;99.90
19389;DHT22;9830;41.876;23.474;2023-07-16T04:20:40;25.40;99.90
19389;DHT22;9830;41.876;23.474;2023-07-16T04:23:05;25.90;99.90
19389;DHT22;9830;41.876;23.474;2023-07-16T04:25:31;26.10;99.90
19389;DHT22;9830;41.876;23.474;2023-07-16T04:27:57;26.30;99.90
19389;DHT22;9830;41.876;23.474;2023-07-16T04:30:23;26.70;99.90
19389;DHT22;9830;41.876;23.474;2023-07-16T04:32:48;27.00;99.90
19389;DHT22;9830;41.876;23.474;2023-07-16T04:35:14;27.60;99.90
19389;DHT22;9830;41.876;23.474;2023-07-16T04:37:40;27.90;99.90
19389;DHT22;9830;41.876;23.474;2023-07-16T04:40:06;28.20;99.60
19389;DHT22;9830;41.876;23.474;2023-07-16T04:42:32;29.00;97.30
19389;DHT22;9830;41.876;23.474;2023-07-16T04:44:58;29.20;95.50
19389;DHT22;9830;41.876;23.474;2023-07-16T04:47:23;29.30;92.80
19389;DHT22;9830;41.876;23.474;2023-07-16T04:49:49;29.90;92.20
19389;DHT22;9830;41.876;23.474;2023-07-16T04:52:15;30.20;90.30
19389;DHT22;9830;41.876;23.474;2023-07-16T04:54:40;30.50;86.30
19389;DHT22;9830;41.876;23.474;2023-07-16T04:57:06;30.90;82.70
19389;DHT22;9830;41.876;23.474;2023-07-16T04:59:33;31.20;79.50
19389;DHT22;9830;41.876;23.474;2023-07-16T05:01:58;31.90;73.70
19389;DHT22;9830;41.876;23.474;2023-07-16T05:04:24;32.50;66.50
19389;DHT22;9830;41.876;23.474;2023-07-16T05:06:51;32.90;61.30
19389;DHT22;9830;41.876;23.474;2023-07-16T05:09:16;32.90;61.70
19389;DHT22;9830;41.876;23.474;2023-07-16T05:11:42;33.40;59.20
19389;DHT22;9830;41.876;23.474;2023-07-16T05:14:08;33.60;57.90
19389;DHT22;9830;41.876;23.474;2023-07-16T05:16:33;34.00;55.90
19389;DHT22;9830;41.876;23.474;2023-07-16T05:18:59;34.00;56.00
19389;DHT22;9830;41.876;23.474;2023-07-16T05:21:25;34.20;55.80
19389;DHT22;9830;41.876;23.474;2023-07-16T05:23:50;34.00;55.20
19389;DHT22;9830;41.876;23.474;2023-07-16T05:26:16;33.80;54.90
19389;DHT22;9830;41.876;23.474;2023-07-16T05:28:41;34.80;52.90
19389;DHT22;9830;41.876;23.474;2023-07-16T05:31:07;35.10;50.50
19389;DHT22;9830;41.876;23.474;2023-07-16T05:33:33;34.70;50.80
19389;DHT22;9830;41.876;23.474;2023-07-16T05:35:58;34.60;51.80
19389;DHT22;9830;41.876;23.474;2023-07-16T05:38:24;35.50;49.40
19389;DHT22;9830;41.876;23.474;2023-07-16T05:40:50;36.20;48.80
19389;DHT22;9830;41.876;23.474;2023-07-16T05:43:15;37.10;46.10
19389;DHT22;9830;41.876;23.474;2023-07-16T05:45:41;36.30;46.70
19389;DHT22;9830;41.876;23.474;2023-07-16T05:48:07;35.70;47.50
19389;DHT22;9830;41.876;23.474;2023-07-16T05:50:33;36.90;45.90
19389;DHT22;9830;41.876;23.474;2023-07-16T05:52:58;36.90;45.10
19389;DHT22;9830;41.876;23.474;2023-07-16T05:55:24;36.20;46.40
19389;DHT22;9830;41.876;23.474;2023-07-16T05:57:50;37.30;44.80
19389;DHT22;9830;41.876;23.474;2023-07-16T06:00:16;37.00;45.20
19389;DHT22;9830;41.876;23.474;2023-07-16T06:02:43;37.50;46.00
19389;DHT22;9830;41.876;23.474;2023-07-16T06:05:09;37.70;44.30
19389;DHT22;9830;41.876;23.474;2023-07-16T06:07:34;37.60;45.50
19389;DHT22;9830;41.876;23.474;2023-07-16T06:10:00;37.80;44.70
19389;DHT22;9830;41.876;23.474;2023-07-16T06:12:26;38.40;44.00
19389;DHT22;9830;41.876;23.474;2023-07-16T06:14:51;38.90;42.40
19389;DHT22;9830;41.876;23.474;2023-07-16T06:17:17;39.30;41.20
19389;DHT22;9830;41.876;23.474;2023-07-16T06:19:43;38.70;41.80
19389;DHT22;9830;41.876;23.474;2023-07-16T06:22:08;38.30;42.20
19389;DHT22;9830;41.876;23.474;2023-07-16T06:24:35;39.00;41.50
19389;DHT22;9830;41.876;23.474;2023-07-16T06:27:01;39.20;42.10
19389;DHT22;9830;41.876;23.474;2023-07-16T06:29:26;39.70;41.90
19389;DHT22;9830;41.876;23.474;2023-07-16T06:31:56;40.40;39.60
19389;DHT22;9830;41.876;23.474;2023-07-16T06:34:22;40.50;39.20
19389;DHT22;9830;41.876;23.474;2023-07-16T06:36:48;41.20;37.70
19389;DHT22;9830;41.876;23.474;2023-07-16T06:39:14;42.10;36.60
19389;DHT22;9830;41.876;23.474;2023-07-16T06:41:39;43.40;35.40
19389;DHT22;9830;41.876;23.474;2023-07-16T06:44:05;43.30;35.10
19389;DHT22;9830;41.876;23.474;2023-07-16T06:46:31;42.80;35.00
19389;DHT22;9830;41.876;23.474;2023-07-16T06:48:56;42.40;35.40
19389;DHT22;9830;41.876;23.474;2023-07-16T06:51:22;43.20;35.20
19389;DHT22;9830;41.876;23.474;2023-07-16T06:53:48;42.30;35.40
19389;DHT22;9830;41.876;23.474;2023-07-16T06:56:14;43.00;34.80
19389;DHT22;9830;41.876;23.474;2023-07-16T06:58:40;42.10;36.30
19389;DHT22;9830;41.876;23.474;2023-07-16T07:01:05;42.80;35.40
19389;DHT22;9830;41.876;23.474;2023-07-16T07:03:31;43.50;33.70
19389;DHT22;9830;41.876;23.474;2023-07-16T07:06:01;42.10;35.00
19389;DHT22;9830;41.876;23.474;2023-07-16T07:08:27;42.40;35.80
19389;DHT22;9830;41.876;23.474;2023-07-16T07:10:53;42.10;35.20
19389;DHT22;9830;41.876;23.474;2023-07-16T07:13:19;42.90;34.50
19389;DHT22;9830;41.876;23.474;2023-07-16T07:15:44;42.70;34.50
19389;DHT22;9830;41.876;23.474;2023-07-16T07:18:10;42.00;35.20
19389;DHT22;9830;41.876;23.474;2023-07-16T07:20:36;41.90;35.30
19389;DHT22;9830;41.876;23.474;2023-07-16T07:23:01;41.80;36.70
19389;DHT22;9830;41.876;23.474;2023-07-16T07:25:29;42.60;36.00
19389;DHT22;9830;41.876;23.474;2023-07-16T07:27:54;43.30;34.00
19389;DHT22;9830;41.876;23.474;2023-07-16T07:30:20;44.20;33.40
19389;DHT22;9830;41.876;23.474;2023-07-16T07:32:46;44.80;32.80
19389;DHT22;9830;41.876;23.474;2023-07-16T07:35:11;43.80;33.70
19389;DHT22;9830;41.876;23.474;2023-07-16T07:37:37;44.60;33.30
19389;DHT22;9830;41.876;23.474;2023-07-16T07:40:03;43.40;35.00
19389;DHT22;9830;41.876;23.474;2023-07-16T07:42:29;43.00;35.40
19389;DHT22;9830;41.876;23.474;2023-07-16T07:44:55;44.40;33.60
19389;DHT22;9830;41.876;23.474;2023-07-16T07:47:21;44.80;32.50
19389;DHT22;9830;41.876;23.474;2023-07-16T07:49:46;45.00;32.00
19389;DHT22;9830;41.876;23.474;2023-07-16T07:52:12;44.30;33.40
19389;DHT22;9830;41.876;23.474;2023-07-16T07:54:38;44.40;33.70
19389;DHT22;9830;41.876;23.474;2023-07-16T07:57:04;44.40;34.00
19389;DHT22;9830;41.876;23.474;2023-07-16T07:59:31;43.70;33.50
19389;DHT22;9830;41.876;23.474;2023-07-16T08:01:57;43.70;34.90
19389;DHT22;9830;41.876;23.474;2023-07-16T08:04:23;44.80;34.00
19389;DHT22;9830;41.876;23.474;2023-07-16T08:06:50;44.90;33.50
19389;DHT22;9830;41.876;23.474;2023-07-16T08:09:16;44.80;33.50
19389;DHT22;9830;41.876;23.474;2023-07-16T08:11:41;44.80;33.40
19389;DHT22;9830;41.876;23.474;2023-07-16T08:14:07;45.10;32.90
19389;DHT22;9830;41.876;23.474;2023-07-16T08:16:33;43.70;35.00
19389;DHT22;9830;41.876;23.474;2023-07-16T08:18:58;44.80;33.50
19389;DHT22;9830;41.876;23.474;2023-07-16T08:21:24;44.20;34.10
19389;DHT22;9830;41.876;23.474;2023-07-16T08:23:50;43.70;34.70
19389;DHT22;9830;41.876;23.474;2023-07-16T08:26:19;43.10;35.40
19389;DHT22;9830;41.876;23.474;2023-07-16T08:28:44;43.10;35.30
19389;DHT22;9830;41.876;23.474;2023-07-16T08:31:11;42.80;35.20
19389;DHT22;9830;41.876;23.474;2023-07-16T08:33:37;42.20;36.20
19389;DHT22;9830;41.876;23.474;2023-07-16T08:36:03;43.00;35.20
19389;DHT22;9830;41.876;23.474;2023-07-16T08:38:29;43.40;35.00
19389;DHT22;9830;41.876;23.474;2023-07-16T08:40:54;43.10;35.40
19389;DHT22;9830;41.876;23.474;2023-07-16T08:43:20;43.90;35.00
19389;DHT22;9830;41.876;23.474;2023-07-16T08:45:48;42.80;35.60
19389;DHT22;9830;41.876;23.474;2023-07-16T08:48:19;43.10;36.40
19389;DHT22;9830;41.876;23.474;2023-07-16T08:50:48;44.10;34.60
19389;DHT22;9830;41.876;23.474;2023-07-16T08:53:17;43.80;34.80
19389;DHT22;9830;41.876;23.474;2023-07-16T08:55:47;44.00;34.60
19389;DHT22;9830;41.876;23.474;2023-07-16T08:58:14;43.40;34.30
19389;DHT22;9830;41.876;23.474;2023-07-16T09:00:43;44.10;34.30
19389;DHT22;9830;41.876;23.474;2023-07-16T09:03:13;44.80;33.30
19389;DHT22;9830;41.876;23.474;2023-07-16T09:05:40;44.30;33.60
19389;DHT22;9830;41.876;23.474;2023-07-16T09:08:06;44.10;35.20
19389;DHT22;9830;41.876;23.474;2023-07-16T09:10:32;44.60;34.00
19389;DHT22;9830;41.876;23.474;2023-07-16T09:12:58;45.00;33.70
19389;DHT22;9830;41.876;23.474;2023-07-16T09:15:26;46.20;32.20
19389;DHT22;9830;41.876;23.474;2023-07-16T09:17:53;45.20;33.20
19389;DHT22;9830;41.876;23.474;2023-07-16T09:20:19;45.00;34.60
19389;DHT22;9830;41.876;23.474;2023-07-16T09:22:47;44.40;33.40
19389;DHT22;9830;41.876;23.474;2023-07-16T09:25:13;43.60;34.70
19389;DHT22;9830;41.876;23.474;2023-07-16T09:27:39;44.00;34.10
19389;DHT22;9830;41.876;23.474;2023-07-16T09:30:05;43.90;34.30
19389;DHT22;9830;41.876;23.474;2023-07-16T09:32:36;44.40;33.80
19389;DHT22;9830;41.876;23.474;2023-07-16T09:35:21;44.50;33.70
19389;DHT22;9830;41.876;23.474;2023-07-16T09:37:47;45.60;34.00
19389;DHT22;9830;41.876;23.474;2023-07-16T09:40:13;45.80;32.50
19389;DHT22;9830;41.876;23.474;2023-07-16T09:42:42;46.20;32.20
19389;DHT22;9830;41.876;23.474;2023-07-16T09:45:17;46.40;31.70
19389;DHT22;9830;41.876;23.474;2023-07-16T09:47:43;45.60;31.60
19389;DHT22;9830;41.876;23.474;2023-07-16T09:50:11;45.80;32.70
19389;DHT22;9830;41.876;23.474;2023-07-16T09:52:37;45.60;32.60
19389;DHT22;9830;41.876;23.474;2023-07-16T09:55:05;44.20;33.50
19389;DHT22;9830;41.876;23.474;2023-07-16T09:57:38;42.70;33.60
19389;DHT22;9830;41.876;23.474;2023-07-16T10:00:07;41.90;35.60
19389;DHT22;9830;41.876;23.474;2023-07-16T10:02:37;42.00;36.70
19389;DHT22;9830;41.876;23.474;2023-07-16T10:05:36;41.90;37.00
19389;DHT22;9830;41.876;23.474;2023-07-16T10:08:05;41.70;36.70
19389;DHT22;9830;41.876;23.474;2023-07-16T10:10:44;41.30;37.40
19389;DHT22;9830;41.876;23.474;2023-07-16T10:13:12;41.00;38.00
19389;DHT22;9830;41.876;23.474;2023-07-16T10:15:38;41.40;37.60
19389;DHT22;9830;41.876;23.474;2023-07-16T10:18:05;41.00;38.50
19389;DHT22;9830;41.876;23.474;2023-07-16T10:20:35;41.10;37.20
19389;DHT22;9830;41.876;23.474;2023-07-16T10:23:15;40.90;37.40
19389;DHT22;9830;41.876;23.474;2023-07-16T10:26:00;40.70;38.30
19389;DHT22;9830;41.876;23.474;2023-07-16T10:28:26;40.70;37.70
19389;DHT22;9830;41.876;23.474;2023-07-16T10:30:52;40.60;37.30
19389;DHT22;9830;41.876;23.474;2023-07-16T10:33:18;40.50;37.20
19389;DHT22;9830;41.876;23.474;2023-07-16T10:35:46;40.60;36.70
19389;DHT22;9830;41.876;23.474;2023-07-16T10:38:12;40.60;37.20
19389;DHT22;9830;41.876;23.474;2023-07-16T10:40:42;40.60;36.40
19389;DHT22;9830;41.876;23.474;2023-07-16T10:43:08;40.90;35.80
19389;DHT22;9830;41.876;23.474;2023-07-16T10:45:34;40.40;36.40
19389;DHT22;9830;41.876;23.474;2023-07-16T10:48:00;40.60;37.40
19389;DHT22;9830;41.876;23.474;2023-07-16T10:50:25;40.80;36.10
19389;DHT22;9830;41.876;23.474;2023-07-16T10:52:57;40.60;36.40
19389;DHT22;9830;41.876;23.474;2023-07-16T10:55:23;40.60;36.50
19389;DHT22;9830;41.876;23.474;2023-07-16T10:57:49;40.60;36.00
19389;DHT22;9830;41.876;23.474;2023-07-16T11:00:17;40.60;35.40
19389;DHT22;9830;41.876;23.474;2023-07-16T11:02:44;40.90;35.60
19389;DHT22;9830;41.876;23.474;2023-07-16T11:05:14;40.60;35.80
19389;DHT22;9830;41.876;23.474;2023-07-16T11:07:47;40.70;36.00
19389;DHT22;9830;41.876;23.474;2023-07-16T11:10:15;40.70;36.30
19389;DHT22;9830;41.876;23.474;2023-07-16T11:12:42;40.60;35.90
19389;DHT22;9830;41.876;23.474;2023-07-16T11:15:08;40.40;36.50
19389;DHT22;9830;41.876;23.474;2023-07-16T11:17:36;40.80;36.60
19389;DHT22;9830;41.876;23.474;2023-07-16T11:20:02;40.80;35.90
19389;DHT22;9830;41.876;23.474;2023-07-16T11:22:29;41.00;34.90
19389;DHT22;9830;41.876;23.474;2023-07-16T11:24:55;41.20;36.30
19389;DHT22;9830;41.876;23.474;2023-07-16T11:27:26;41.10;35.10
19389;DHT22;9830;41.876;23.474;2023-07-16T11:29:55;40.60;34.20
19389;DHT22;9830;41.876;23.474;2023-07-16T11:32:45;40.80;34.10
19389;DHT22;9830;41.876;23.474;2023-07-16T11:35:15;40.80;35.80
19389;DHT22;9830;41.876;23.474;2023-07-16T11:37:41;40.80;35.80
19389;DHT22;9830;41.876;23.474;2023-07-16T11:40:09;40.50;36.90
19389;DHT22;9830;41.876;23.474;2023-07-16T11:42:38;40.30;35.10
19389;DHT22;9830;41.876;23.474;2023-07-16T11:45:14;40.30;36.70
19389;DHT22;9830;41.876;23.474;2023-07-16T11:47:39;40.10;37.60
19389;DHT22;9830;41.876;23.474;2023-07-16T11:50:05;40.00;36.80
19389;DHT22;9830;41.876;23.474;2023-07-16T11:52:31;39.30;38.50
19389;DHT22;9830;41.876;23.474;2023-07-16T11:54:58;38.90;39.20
19389;DHT22;9830;41.876;23.474;2023-07-16T11:57:29;38.90;40.40
19389;DHT22;9830;41.876;23.474;2023-07-16T11:59:55;39.10;39.60
19389;DHT22;9830;41.876;23.474;2023-07-16T12:02:21;39.40;38.70
19389;DHT22;9830;41.876;23.474;2023-07-16T12:04:47;39.30;39.20
19389;DHT22;9830;41.876;23.474;2023-07-16T12:07:13;39.10;39.30
19389;DHT22;9830;41.876;23.474;2023-07-16T12:09:38;39.10;37.90
19389;DHT22;9830;41.876;23.474;2023-07-16T12:12:05;38.70;40.60
19389;DHT22;9830;41.876;23.474;2023-07-16T12:14:31;38.40;40.90
19389;DHT22;9830;41.876;23.474;2023-07-16T12:16:57;38.50;41.10
19389;DHT22;9830;41.876;23.474;2023-07-16T12:19:23;38.60;40.70
19389;DHT22;9830;41.876;23.474;2023-07-16T12:21:49;38.50;40.00
19389;DHT22;9830;41.876;23.474;2023-07-16T12:24:14;38.30;40.80
19389;DHT22;9830;41.876;23.474;2023-07-16T12:26:40;38.50;40.90
19389;DHT22;9830;41.876;23.474;2023-07-16T12:29:06;38.70;39.80
19389;DHT22;9830;41.876;23.474;2023-07-16T12:31:32;38.70;40.60
19389;DHT22;9830;41.876;23.474;2023-07-16T12:33:58;38.70;40.90
19389;DHT22;9830;41.876;23.474;2023-07-16T12:36:24;38.80;40.50
19389;DHT22;9830;41.876;23.474;2023-07-16T12:38:50;38.90;40.10
19389;DHT22;9830;41.876;23.474;2023-07-16T12:41:17;39.00;39.60
19389;DHT22;9830;41.876;23.474;2023-07-16T12:43:43;39.10;38.90
19389;DHT22;9830;41.876;23.474;2023-07-16T12:46:08;39.30;39.80
19389;DHT22;9830;41.876;23.474;2023-07-16T12:48:34;39.60;38.30
19389;DHT22;9830;41.876;23.474;2023-07-16T12:51:00;39.20;38.80
19389;DHT22;9830;41.876;23.474;2023-07-16T12:53:26;39.30;40.00
19389;DHT22;9830;41.876;23.474;2023-07-16T12:55:52;39.30;38.20
19389;DHT22;9830;41.876;23.474;2023-07-16T12:58:18;39.60;40.00
19389;DHT22;9830;41.876;23.474;2023-07-16T13:00:44;39.60;38.70
19389;DHT22;9830;41.876;23.474;2023-07-16T13:03:09;39.70;38.10
19389;DHT22;9830;41.876;23.474;2023-07-16T13:05:42;39.80;38.40
19389;DHT22;9830;41.876;23.474;2023-07-16T13:08:07;40.10;37.40
19389;DHT22;9830;41.876;23.474;2023-07-16T13:10:33;40.20;37.10
19389;DHT22;9830;41.876;23.474;2023-07-16T13:12:59;40.10;37.60
19389;DHT22;9830;41.876;23.474;2023-07-16T13:15:24;40.00;38.70
19389;DHT22;9830;41.876;23.474;2023-07-16T13:17:50;39.70;37.50
19389;DHT22;9830;41.876;23.474;2023-07-16T13:20:17;39.40;37.60
19389;DHT22;9830;41.876;23.474;2023-07-16T13:22:43;39.70;37.80
19389;DHT22;9830;41.876;23.474;2023-07-16T13:25:09;39.60;38.40
19389;DHT22;9830;41.876;23.474;2023-07-16T13:27:34;39.20;38.20
19389;DHT22;9830;41.876;23.474;2023-07-16T13:30:00;39.00;38.20
19389;DHT22;9830;41.876;23.474;2023-07-16T13:32:26;39.20;38.10
19389;DHT22;9830;41.876;23.474;2023-07-16T13:34:52;39.40;37.10
19389;DHT22;9830;41.876;23.474;2023-07-16T13:37:17;39.60;38.50
19389;DHT22;9830;41.876;23.474;2023-07-16T13:39:43;39.60;39.10
19389;DHT22;9830;41.876;23.474;2023-07-16T13:42:09;39.50;38.40
19389;DHT22;9830;41.876;23.474;2023-07-16T13:44:36;39.70;37.80
19389;DHT22;9830;41.876;23.474;2023-07-16T13:47:02;39.70;38.10
19389;DHT22;9830;41.876;23.474;2023-07-16T13:49:28;39.30;38.80
19389;DHT22;9830;41.876;23.474;2023-07-16T13:51:53;39.30;38.40
19389;DHT22;9830;41.876;23.474;2023-07-16T13:54:19;38.70;38.60
19389;DHT22;9830;41.876;23.474;2023-07-16T13:56:45;38.30;38.50
19389;DHT22;9830;41.876;23.474;2023-07-16T13:59:10;38.20;39.00
19389;DHT22;9830;41.876;23.474;2023-07-16T14:01:39;38.00;38.80
19389;DHT22;9830;41.876;23.474;2023-07-16T14:04:06;37.60;39.60
19389;DHT22;9830;41.876;23.474;2023-07-16T14:06:32;37.50;39.50
19389;DHT22;9830;41.876;23.474;2023-07-16T14:08:58;37.30;39.60
19389;DHT22;9830;41.876;23.474;2023-07-16T14:11:24;37.70;39.90
19389;DHT22;9830;41.876;23.474;2023-07-16T14:13:50;38.00;40.30
19389;DHT22;9830;41.876;23.474;2023-07-16T14:16:20;38.30;40.00
19389;DHT22;9830;41.876;23.474;2023-07-16T14:18:51;37.90;38.90
19389;DHT22;9830;41.876;23.474;2023-07-16T14:21:18;37.10;39.80
19389;DHT22;9830;41.876;23.474;2023-07-16T14:23:44;36.70;41.70
19389;DHT22;9830;41.876;23.474;2023-07-16T14:26:10;36.20;43.70
19389;DHT22;9830;41.876;23.474;2023-07-16T14:28:35;35.80;44.30
19389;DHT22;9830;41.876;23.474;2023-07-16T14:31:01;35.50;45.20
19389;DHT22;9830;41.876;23.474;2023-07-16T14:33:27;35.20;45.00
19389;DHT22;9830;41.876;23.474;2023-07-16T14:35:53;35.00;44.00
19389;DHT22;9830;41.876;23.474;2023-07-16T14:38:19;35.00;46.20
19389;DHT22;9830;41.876;23.474;2023-07-16T14:40:44;34.80;47.10
19389;DHT22;9830;41.876;23.474;2023-07-16T14:43:10;34.80;47.00
19389;DHT22;9830;41.876;23.474;2023-07-16T14:45:36;34.80;47.70
19389;DHT22;9830;41.876;23.474;2023-07-16T14:48:02;34.90;48.20
19389;DHT22;9830;41.876;23.474;2023-07-16T14:50:28;35.00;47.60
19389;DHT22;9830;41.876;23.474;2023-07-16T14:52:54;35.30;46.50
19389;DHT22;9830;41.876;23.474;2023-07-16T14:55:20;35.50;45.90
19389;DHT22;9830;41.876;23.474;2023-07-16T14:57:45;35.20;44.80
19389;DHT22;9830;41.876;23.474;2023-07-16T15:00:11;35.10;48.20
19389;DHT22;9830;41.876;23.474;2023-07-16T15:02:39;34.80;48.90
19389;DHT22;9830;41.876;23.474;2023-07-16T15:05:05;34.50;47.30
19389;DHT22;9830;41.876;23.474;2023-07-16T15:07:30;33.90;47.10
19389;DHT22;9830;41.876;23.474;2023-07-16T15:09:56;33.70;47.90
19389;DHT22;9830;41.876;23.474;2023-07-16T15:12:22;33.40;49.40
19389;DHT22;9830;41.876;23.474;2023-07-16T15:14:48;33.30;50.60
19389;DHT22;9830;41.876;23.474;2023-07-16T15:17:13;33.00;50.90
19389;DHT22;9830;41.876;23.474;2023-07-16T15:19:39;33.10;52.90
19389;DHT22;9830;41.876;23.474;2023-07-16T15:22:06;33.20;51.90
19389;DHT22;9830;41.876;23.474;2023-07-16T15:24:32;33.30;52.50
19389;DHT22;9830;41.876;23.474;2023-07-16T15:26:57;33.40;52.90
19389;DHT22;9830;41.876;23.474;2023-07-16T15:29:23;33.40;54.20
19389;DHT22;9830;41.876;23.474;2023-07-16T15:31:49;33.00;59.20